LPPS/PXO METAR and TAF weather

Enter ICAO airport designator
Station Type Date Time Source
LPPS METAR 2019/08/25 02:30 UTC NOAA

LPPS 250230Z 03010KT 360V070 9999 SCT013 22/18 Q1019


Station Type Date Time Source
LPPS Decoded METAR 2019/08/25 02:30 UTC NOAA

Station name not available
Aug 24, 2019 - 10:30 PM EDT / 2019.08.25 0230 UTC
Wind: from the NNE (030 degrees) at 12 MPH (10 KT) (direction variable):0
Visibility: greater than 7 mile(s):0
Sky conditions: partly cloudy
Temperature: 71 F (22 C)
Dew Point: 64 F (18 C)
Relative Humidity: 78%
Pressure (altimeter): 30.09 in. Hg (1019 hPa)
ob: LPPS 250230Z 03010KT 360V070 9999 SCT013 22/18 Q1019
cycle: 2

Station Type Date Time Source
LPPS TAF 2019/08/24 18:18 UTC NOAA

TAF LPPS 241700Z 2418/2524 03015KT 9999 SCT012 PROB40
TEMPO 2418/2524 02015G25KT
TEMPO 2500/2510 BKN012

Example: see airport list